Time;durP1;ratioP1;P1;durP2;ratioP2;P2;SDS_P1;SDS_P2;PMS_P1;PMS_P2;Temp;Humidity;BMP_temperature;BMP_pressure;BME280_temperature;BME280_humidity;BME280_pressure;Samples;Min_cycle;Max_cycle;Signal;HPM_P1;HPM_P2
2021/03/02 00:00:45;;;;;;;21.30;11.70;;;;;;;4.71;77.02;101833.63;5033308;28;20124;-67
2021/03/02 00:03:30;;;;;;;24.55;11.95;;;;;;;4.78;76.74;101829.78;5018450;28;20052;-67
2021/03/02 00:06:16;;;;;;;23.33;11.70;;;;;;;4.71;76.84;101826.56;5018178;28;20124;-66
2021/03/02 00:09:01;;;;;;;19.38;10.75;;;;;;;4.67;76.95;101832.06;5018374;28;20124;-67
2021/03/02 00:11:47;;;;;;;20.17;11.32;;;;;;;4.67;77.11;101839.97;5018329;28;20048;-67
2021/03/02 00:14:34;;;;;;;23.33;11.93;;;;;;;4.69;77.38;101835.47;5018312;28;20051;-67
2021/03/02 00:17:27;;;;;;;23.38;12.00;;;;;;;4.67;77.37;101837.34;5017777;28;20060;-67
2021/03/02 00:20:23;;;;;;;24.35;12.50;;;;;;;4.63;77.64;101835.75;5018166;28;20102;-67
2021/03/02 00:23:17;;;;;;;25.42;12.57;;;;;;;4.58;78.03;101840.38;5033403;28;20095;-67
2021/03/02 00:26:02;;;;;;;28.27;13.18;;;;;;;4.53;78.14;101850.28;5017851;28;20048;-67
2021/03/02 00:28:50;;;;;;;23.23;12.10;;;;;;;4.49;78.44;101848.72;5017936;28;20088;-67
2021/03/02 00:31:34;;;;;;;25.05;11.88;;;;;;;4.45;78.62;101848.00;5033066;28;20044;-66
2021/03/02 00:34:18;;;;;;;24.25;12.05;;;;;;;4.45;78.58;101852.44;5032788;28;20041;-67
2021/03/02 00:37:03;;;;;;;23.65;12.15;;;;;;;4.38;78.89;101850.97;5018342;28;20140;-67
2021/03/02 00:39:46;;;;;;;26.88;12.02;;;;;;;4.33;78.86;101850.31;5036740;28;20114;-67
2021/03/02 00:42:31;;;;;;;27.00;11.77;;;;;;;4.28;79.33;101849.66;5021869;28;20474;-67
2021/03/02 00:45:15;;;;;;;24.08;12.05;;;;;;;4.21;79.64;101853.47;5021754;28;20552;-67
2021/03/02 00:48:00;;;;;;;21.02;11.70;;;;;;;4.15;79.77;101849.31;5036566;28;20130;-67
2021/03/02 00:50:44;;;;;;;22.02;10.68;;;;;;;4.07;80.13;101850.59;5021311;28;20552;-67
2021/03/02 00:53:28;;;;;;;19.10;10.73;;;;;;;3.98;80.83;101851.81;5021807;28;20509;-67
2021/03/02 00:56:11;;;;;;;24.55;11.82;;;;;;;3.89;81.37;101856.63;5036349;28;20114;-67
2021/03/02 00:58:56;;;;;;;20.42;10.95;;;;;;;3.81;81.68;101864.00;5036217;28;20426;-67
2021/03/02 01:01:40;;;;;;;19.27;10.85;;;;;;;3.69;81.78;101859.22;5036426;28;20052;-67
2021/03/02 01:04:25;;;;;;;19.10;10.63;;;;;;;3.58;82.37;101862.31;5036113;28;20187;-66
2021/03/02 01:07:09;;;;;;;17.33;10.23;;;;;;;3.49;83.03;101856.53;5021017;28;20418;-67
2021/03/02 01:09:53;;;;;;;20.02;10.93;;;;;;;3.40;83.31;101852.50;5036272;28;20052;-67
2021/03/02 01:12:37;;;;;;;19.73;10.18;;;;;;;3.34;83.69;101851.91;5036230;28;20095;-67
2021/03/02 01:15:22;;;;;;;20.67;10.82;;;;;;;3.30;83.85;101850.28;5035895;28;20517;-67
2021/03/02 01:18:06;;;;;;;17.17;9.85;;;;;;;3.23;84.19;101848.84;5035601;28;20184;-66
2021/03/02 01:20:50;;;;;;;16.88;8.35;;;;;;;3.12;84.12;101856.31;5035854;28;20052;-67
2021/03/02 01:23:34;;;;;;;18.40;10.35;;;;;;;3.04;84.06;101855.72;5007103;28;20128;-67
2021/03/02 01:26:18;;;;;;;18.50;8.85;;;;;;;2.96;84.86;101857.78;5036404;28;20457;-67
2021/03/02 01:29:03;;;;;;;20.58;9.45;;;;;;;2.84;84.59;101855.63;5036870;28;20052;-67
2021/03/02 01:31:47;;;;;;;17.83;9.45;;;;;;;2.74;85.22;101860.34;5021467;28;20549;-68
2021/03/02 01:34:32;;;;;;;19.40;9.80;;;;;;;2.65;85.25;101854.59;5036195;28;20509;-66
2021/03/02 01:37:16;;;;;;;19.25;9.32;;;;;;;2.58;86.03;101853.06;5035598;28;20071;-67
2021/03/02 01:40:03;;;;;;;15.48;8.52;;;;;;;2.51;86.04;101856.88;5035630;28;20045;-68
2021/03/02 01:42:47;;;;;;;18.83;9.60;;;;;;;2.45;86.22;101857.06;5035658;28;20047;-68
2021/03/02 01:45:31;;;;;;;18.45;9.88;;;;;;;2.42;87.03;101851.06;5020920;28;20111;-68
2021/03/02 01:48:15;;;;;;;23.40;9.90;;;;;;;2.40;87.20;101859.00;5019664;28;20048;-67
2021/03/02 01:50:59;;;;;;;19.98;10.00;;;;;;;2.38;87.36;101860.84;5020446;28;20056;-65
2021/03/02 01:53:44;;;;;;;17.83;10.07;;;;;;;2.35;87.43;101858.31;5020532;28;20508;-67
2021/03/02 01:56:27;;;;;;;19.88;10.10;;;;;;;2.30;86.59;101852.38;5035304;28;20557;-67
2021/03/02 01:59:12;;;;;;;21.15;9.85;;;;;;;2.23;86.25;101850.88;5020122;28;20525;-68
2021/03/02 02:01:57;;;;;;;19.38;9.20;;;;;;;2.18;87.04;101836.16;5020349;28;20410;-67
2021/03/02 02:04:45;;;;;;;18.02;10.05;;;;;;;2.10;86.87;101852.22;5020070;28;20106;-67
2021/03/02 02:07:36;;;;;;;17.52;9.10;;;;;;;2.04;86.84;101846.28;5020072;28;20095;-66
2021/03/02 02:10:39;;;;;;;17.98;9.40;;;;;;;2.00;87.38;101853.44;5035186;28;20531;-67
2021/03/02 02:13:30;;;;;;;18.40;9.32;;;;;;;1.95;87.90;101849.25;5020133;28;20051;-67
2021/03/02 02:16:15;;;;;;;16.75;9.45;;;;;;;1.91;87.68;101851.13;5034445;28;20090;-67
2021/03/02 02:18:59;;;;;;;18.50;10.48;;;;;;;1.79;88.54;101848.91;5021590;28;20399;-67
2021/03/02 02:22:06;;;;;;;;;;;;;;;1.75;89.51;101844.63;5006523;28;20517;-67
2021/03/02 02:25:12;;;;;;;20.75;9.95;;;;;;;1.69;89.34;101844.88;5035323;28;19967;-67
2021/03/02 02:27:58;;;;;;;17.90;10.13;;;;;;;1.65;89.48;101853.75;5034715;28;20072;-67
2021/03/02 02:30:43;;;;;;;19.05;9.63;;;;;;;1.61;89.34;101859.16;5019880;28;20087;-67
2021/03/02 02:33:33;;;;;;;19.52;9.68;;;;;;;1.58;89.72;101856.63;5005808;28;20051;-67
2021/03/02 02:36:18;;;;;;;19.02;10.68;;;;;;;1.52;89.93;101857.69;5019283;28;20080;-67
2021/03/02 02:39:02;;;;;;;19.33;11.00;;;;;;;1.51;90.26;101862.97;5034592;28;20103;-67
2021/03/02 02:41:49;;;;;;;17.23;9.52;;;;;;;1.46;90.59;101871.00;5034244;28;20134;-68
2021/03/02 02:44:34;;;;;;;23.70;10.75;;;;;;;1.44;90.78;101862.31;5019553;28;20144;-67
2021/03/02 02:47:19;;;;;;;21.20;10.60;;;;;;;1.43;91.25;101865.88;5034077;28;20044;-67
2021/03/02 02:50:04;;;;;;;21.35;11.45;;;;;;;1.40;91.19;101872.97;5034147;28;20052;-67
2021/03/02 02:52:49;;;;;;;20.55;12.13;;;;;;;1.39;90.91;101869.50;5034326;28;20133;-67
2021/03/02 02:55:59;;;;;;;23.45;11.20;;;;;;;1.36;90.78;101863.47;5034226;28;20049;-67
2021/03/02 02:59:06;;;;;;;24.48;11.65;;;;;;;1.31;91.38;101868.88;5018978;28;20048;-67
2021/03/02 03:01:56;;;;;;;23.98;12.10;;;;;;;1.30;92.16;101869.78;5034214;28;20126;-67
2021/03/02 03:04:43;;;;;;;25.70;11.05;;;;;;;1.28;91.75;101866.34;5018852;28;20052;-67
2021/03/02 03:07:56;;;;;;;20.23;10.18;;;;;;;1.29;91.61;101861.94;5018831;28;20410;-68
2021/03/02 03:10:43;;;;;;;20.75;10.35;;;;;;;1.29;91.93;101861.94;5019059;28;20060;-68
2021/03/02 03:13:31;;;;;;;20.42;11.00;;;;;;;1.25;91.52;101866.44;5018978;28;20064;-68
2021/03/02 03:16:16;;;;;;;21.70;11.70;;;;;;;1.25;91.70;101855.91;5018308;28;20044;-68
2021/03/02 03:19:01;;;;;;;24.48;11.60;;;;;;;1.21;91.66;101854.31;5033619;28;20049;-67
2021/03/02 03:21:46;;;;;;;19.88;10.90;;;;;;;1.16;91.85;101861.47;5004902;28;20099;-67
2021/03/02 03:24:30;;;;;;;21.55;10.13;;;;;;;1.14;92.00;101860.66;5033627;28;20461;-67
2021/03/02 03:27:15;;;;;;;20.67;10.35;;;;;;;1.14;91.71;101860.66;5033737;28;20121;-67
2021/03/02 03:30:00;;;;;;;20.00;10.52;;;;;;;1.10;91.51;101860.78;5033475;28;20052;-67
2021/03/02 03:32:47;;;;;;;19.05;10.93;;;;;;;1.06;91.58;101854.75;5018844;28;20056;-66
2021/03/02 03:35:32;;;;;;;24.50;11.25;;;;;;;1.05;91.84;101853.03;5018400;28;20055;-67
2021/03/02 03:38:16;;;;;;;19.77;10.82;;;;;;;1.02;92.44;101858.41;5033506;28;20142;-67
2021/03/02 03:41:00;;;;;;;20.83;10.88;;;;;;;0.96;92.09;101858.56;5004517;28;20083;-66
2021/03/02 03:43:45;;;;;;;23.38;11.90;;;;;;;0.89;92.72;101862.31;5033248;28;20056;-67
2021/03/02 03:46:29;;;;;;;22.48;11.98;;;;;;;0.84;93.27;101864.19;5033390;28;20401;-67
2021/03/02 03:49:14;;;;;;;23.45;12.07;;;;;;;0.82;93.67;101871.25;5033238;28;20091;-66
2021/03/02 03:51:59;;;;;;;23.25;11.68;;;;;;;0.81;93.73;101869.53;5033466;28;20080;-67
2021/03/02 03:54:44;;;;;;;22.98;12.07;;;;;;;0.79;93.97;101871.34;5018424;28;20111;-67
2021/03/02 03:57:28;;;;;;;21.50;11.18;;;;;;;0.76;93.85;101871.41;5033021;28;20056;-67
2021/03/02 04:00:13;;;;;;;24.35;12.13;;;;;;;0.76;93.94;101881.09;5018355;28;20052;-67
2021/03/02 04:02:58;;;;;;;20.90;10.85;;;;;;;0.74;94.27;101872.41;5033381;28;20115;-67
2021/03/02 04:05:42;;;;;;;20.80;11.18;;;;;;;0.73;94.18;101876.78;5004450;28;20040;-67
2021/03/02 04:08:28;;;;;;;23.15;11.02;;;;;;;0.71;94.28;101877.72;5018234;28;20163;-67
2021/03/02 04:11:12;;;;;;;23.35;11.63;;;;;;;0.68;94.01;101880.44;5018397;28;20502;-67
2021/03/02 04:13:57;;;;;;;22.67;11.18;;;;;;;0.64;94.57;101871.78;5021889;28;20111;-66
2021/03/02 04:16:42;;;;;;;23.50;12.07;;;;;;;0.62;94.73;101878.84;5036679;28;20052;-67
2021/03/02 04:19:26;;;;;;;22.75;12.18;;;;;;;0.59;95.14;101878.94;5022244;28;20139;-67
2021/03/02 04:22:10;;;;;;;28.35;13.27;;;;;;;0.56;95.46;101883.41;5022170;28;20048;-66
2021/03/02 04:24:55;;;;;;;25.73;12.23;;;;;;;0.55;96.03;101884.31;5037082;28;20088;-67
2021/03/02 04:27:40;;;;;;;23.20;12.70;;;;;;;0.51;95.99;101885.28;5036929;28;20132;-67
2021/03/02 04:30:25;;;;;;;25.25;12.35;;;;;;;0.48;95.94;101878.38;5036989;28;20111;-66
2021/03/02 04:33:09;;;;;;;22.90;11.57;;;;;;;-139.48;100.00;61774.03;5021835;28;20072;-67
2021/03/02 04:35:53;;;;;;;25.85;12.73;;;;;;;-139.48;100.00;61774.03;5007744;28;20053;-67
2021/03/02 04:38:38;;;;;;;24.25;11.93;;;;;;;-139.48;100.00;61774.03;5036877;28;20060;-67
2021/03/02 04:41:22;;;;;;;26.08;12.88;;;;;;;-139.48;100.00;61774.03;5036566;28;20061;-67
2021/03/02 04:44:07;;;;;;;29.00;12.93;;;;;;;-139.48;100.00;61774.03;5021535;28;20047;-67
2021/03/02 04:46:51;;;;;;;20.13;11.50;;;;;;;-139.48;100.00;61774.03;5036310;28;20045;-67
2021/03/02 04:49:35;;;;;;;25.52;13.27;;;;;;;-139.48;100.00;61774.03;5036362;28;20048;-67
2021/03/02 04:52:19;;;;;;;20.80;10.93;;;;;;;-139.48;100.00;61774.03;5021667;28;20140;-67
2021/03/02 04:55:05;;;;;;;27.63;13.20;;;;;;;-139.48;100.00;61774.03;5036261;28;20513;-67
2021/03/02 04:57:49;;;;;;;23.30;12.23;;;;;;;-139.48;100.00;61774.03;5036083;28;20052;-67
2021/03/02 05:00:34;;;;;;;22.08;11.70;;;;;;;-139.48;100.00;61774.03;5021494;28;20505;-67
2021/03/02 05:03:18;;;;;;;25.45;12.38;;;;;;;-139.48;100.00;61774.03;5021469;28;20471;-67
2021/03/02 05:06:03;;;;;;;23.02;11.18;;;;;;;-139.48;100.00;61774.03;5035961;28;20136;-68
2021/03/02 05:08:47;;;;;;;23.60;11.73;;;;;;;-139.48;100.00;61774.03;5035984;28;20147;-67
2021/03/02 05:11:31;;;;;;;24.50;13.38;;;;;;;-139.48;100.00;61774.03;5036325;28;20129;-68
2021/03/02 05:14:15;;;;;;;22.83;11.73;;;;;;;-139.48;100.00;61774.03;5035914;28;20048;-68
2021/03/02 05:17:00;;;;;;;20.77;11.55;;;;;;;-139.48;100.00;61774.03;5006956;28;20419;-67
2021/03/02 05:19:44;;;;;;;22.38;12.15;;;;;;;-139.48;100.00;61774.03;5036098;28;20192;-67
2021/03/02 05:22:28;;;;;;;23.05;11.88;;;;;;;-139.48;100.00;61774.03;5036140;28;20064;-67
2021/03/02 05:25:12;;;;;;;25.42;12.10;;;;;;;-139.48;100.00;61774.03;5020965;28;20048;-68
2021/03/02 05:27:57;;;;;;;27.58;12.80;;;;;;;-139.48;100.00;61774.03;5035894;28;20414;-68
2021/03/02 05:30:41;;;;;;;22.50;11.70;;;;;;;-139.48;100.00;61774.03;5035909;28;20091;-68
2021/03/02 05:33:24;;;;;;;25.40;12.55;;;;;;;-139.48;100.00;61774.03;5021093;28;20134;-67
2021/03/02 05:36:08;;;;;;;22.73;11.88;;;;;;;-139.48;100.00;61774.03;5020663;28;20479;-67
2021/03/02 05:38:53;;;;;;;27.25;12.15;;;;;;;-139.48;100.00;61774.03;5020592;28;20099;-67
2021/03/02 05:41:37;;;;;;;;;;;;;;;-139.48;100.00;61774.03;5036009;28;20052;-67
2021/03/02 05:44:21;;;;;;;27.88;13.45;;;;;;;-139.48;100.00;61774.03;5035733;28;20388;-67
2021/03/02 05:47:06;;;;;;;25.23;12.23;;;;;;;-139.48;100.00;61774.03;5035238;28;20115;-67
2021/03/02 05:49:50;;;;;;;29.27;13.50;;;;;;;-139.48;100.00;61774.03;5020276;28;20418;-67
2021/03/02 05:52:35;;;;;;;21.85;11.48;;;;;;;-139.48;100.00;61774.03;5035761;28;20052;-67
2021/03/02 05:55:20;;;;;;;25.35;12.88;;;;;;;-139.48;100.00;61774.03;5035560;28;20061;-67
2021/03/02 05:58:23;;;;;;;22.45;12.57;;;;;;;-139.48;100.00;61774.03;5035393;28;20187;-67
2021/03/02 06:01:11;;;;;;;23.45;12.07;;;;;;;-139.48;100.00;61774.03;5037053;28;20040;-67
2021/03/02 06:03:55;;;;;;;22.75;11.40;;;;;;;-139.48;100.00;61774.03;5006581;28;20132;-67
2021/03/02 06:06:40;;;;;;;23.40;12.65;;;;;;;-139.48;100.00;61774.03;5006466;28;20521;-67
2021/03/02 06:09:23;;;;;;;24.75;11.73;;;;;;;-139.48;100.00;61774.03;5023328;28;20091;-68
2021/03/02 06:12:08;;;;;;;24.58;13.00;;;;;;;-139.48;100.00;61774.03;5041078;28;20048;-67
2021/03/02 06:15:05;;;;;;;25.65;12.32;;;;;;;-139.48;100.00;61774.03;5024995;28;20057;-67
2021/03/02 06:18:11;;;;;;;24.35;13.05;;;;;;;-139.48;100.00;61774.03;5011564;28;20068;-67
2021/03/02 06:21:10;;;;;;;24.48;13.27;;;;;;;-139.48;100.00;61774.03;5037073;28;20524;-67
2021/03/02 06:23:54;;;;;;;23.17;12.25;;;;;;;-139.48;100.00;61774.03;5020126;28;20175;-67
2021/03/02 06:26:38;;;;;;;27.88;12.85;;;;;;;-139.48;100.00;61774.03;5005869;28;20125;-67
2021/03/02 06:29:23;;;;;;;25.63;12.65;;;;;;;-139.48;100.00;61774.03;5034774;28;20586;-67
2021/03/02 06:32:08;;;;;;;25.30;12.27;;;;;;;-139.48;100.00;61774.03;5019812;28;20473;-67
2021/03/02 06:34:52;;;;;;;24.98;13.43;;;;;;;-139.48;100.00;61774.03;5019033;28;20052;-67
2021/03/02 06:37:44;;;;;;;24.52;12.73;;;;;;;-139.48;100.00;61774.03;5034380;28;20564;-67
2021/03/02 06:40:47;;;;;;;24.75;13.05;;;;;;;-139.48;100.00;61774.03;5019404;28;20053;-67
2021/03/02 06:43:38;;;;;;;27.17;12.95;;;;;;;-139.48;100.00;61774.03;5019151;28;20056;-67
2021/03/02 06:46:38;;;;;;;25.50;12.80;;;;;;;-139.48;100.00;61774.03;5019321;28;20053;-67
2021/03/02 06:49:41;;;;;;;25.27;11.70;;;;;;;-139.48;100.00;61774.03;5019325;28;20091;-67
2021/03/02 06:52:25;;;;;;;25.52;13.02;;;;;;;-139.48;100.00;61774.03;5034302;28;20047;-67
2021/03/02 06:55:15;;;;;;;23.75;12.05;;;;;;;-139.48;100.00;61774.03;5019287;28;20508;-67
2021/03/02 06:58:19;;;;;;;21.98;12.02;;;;;;;-139.48;100.00;61774.03;5018748;28;20111;-67
2021/03/02 07:01:03;;;;;;;22.95;12.68;;;;;;;-139.48;100.00;61774.03;5033999;28;20118;-67
2021/03/02 07:03:47;;;;;;;22.63;12.75;;;;;;;-139.48;100.00;61774.03;5019051;28;20080;-67
2021/03/02 07:06:36;;;;;;;23.42;11.50;;;;;;;-139.48;100.00;61774.03;5034149;28;20051;-68
2021/03/02 07:09:20;;;;;;;23.20;12.15;;;;;;;-139.48;100.00;61774.03;5018812;28;20052;-67
2021/03/02 07:12:05;;;;;;;25.13;12.90;;;;;;;-139.48;100.00;61774.03;5034031;28;20501;-67
2021/03/02 07:14:50;;;;;;;23.42;11.65;;;;;;;-139.48;100.00;61774.03;5033961;28;20102;-68
2021/03/02 07:17:39;;;;;;;24.38;11.32;;;;;;;-139.48;100.00;61774.03;5018595;28;20044;-67
2021/03/02 07:20:24;;;;;;;23.80;12.93;;;;;;;-139.48;100.00;61774.03;5018936;28;20048;-68
2021/03/02 07:23:09;;;;;;;20.83;12.27;;;;;;;-139.48;100.00;61774.03;5004918;28;20418;-67
2021/03/02 07:25:53;;;;;;;21.02;12.00;;;;;;;-139.48;100.00;61774.03;5033678;28;20131;-67
2021/03/02 07:28:38;;;;;;;23.05;11.48;;;;;;;-139.48;100.00;61774.03;5005049;28;20079;-67
2021/03/02 07:31:23;;;;;;;19.52;11.23;;;;;;;-139.48;100.00;61774.03;5033637;28;20044;-67
2021/03/02 07:34:09;;;;;;;22.58;13.25;;;;;;;-139.48;100.00;61774.03;5033909;28;20137;-68
2021/03/02 07:36:53;;;;;;;27.23;14.10;;;;;;;-139.48;100.00;61774.03;5018370;28;20051;-68
2021/03/02 07:39:37;;;;;;;25.27;14.80;;;;;;;-139.48;100.00;61774.03;5018839;28;20552;-67
2021/03/02 07:42:22;;;;;;;25.80;14.10;;;;;;;-139.48;100.00;61774.03;5018459;28;20076;-68
2021/03/02 07:45:17;;;;;;;27.48;13.70;;;;;;;-139.48;100.00;61774.03;5018783;28;20140;-67
2021/03/02 07:48:01;;;;;;;21.17;12.18;;;;;;;-139.48;100.00;61774.03;5017301;28;20079;-67
2021/03/02 07:50:45;;;;;;;23.85;12.35;;;;;;;-139.48;100.00;61774.03;5033205;28;20425;-67
2021/03/02 07:53:29;;;;;;;25.88;13.02;;;;;;;-139.48;100.00;61774.03;5033691;28;20047;-67
2021/03/02 07:56:16;;;;;;;27.85;13.63;;;;;;;-139.48;100.00;61774.03;5033236;28;20148;-67
2021/03/02 07:59:09;;;;;;;21.92;12.10;;;;;;;-139.48;100.00;61774.03;5033076;28;20191;-68
2021/03/02 08:02:32;;;;;;;23.30;12.35;;;;;;;-139.48;100.00;61774.03;5033365;28;20159;-67
2021/03/02 08:05:34;;;;;;;22.50;12.68;;;;;;;-139.48;100.00;61774.03;4939238;29;20042;-68
2021/03/02 08:08:24;;;;;;;23.50;12.65;;;;;;;-139.48;100.00;61774.03;4939480;29;20066;-67
2021/03/02 08:11:28;;;;;;;23.40;12.80;;;;;;;-139.48;100.00;61774.03;5033472;28;20129;-67
2021/03/02 08:14:17;;;;;;;23.88;11.90;;;;;;;-139.48;100.00;61774.03;5033105;28;20052;-68
2021/03/02 08:20:06;;;;;;;23.65;12.55;;;;;;;-139.48;100.00;61774.03;4954080;29;20404;-69
2021/03/02 08:22:51;;;;;;;21.13;11.50;;;;;;;-139.48;100.00;61774.03;4955087;29;20050;-69
2021/03/02 08:25:35;;;;;;;23.05;12.18;;;;;;;-139.48;100.00;61774.03;4953863;29;20194;-69
2021/03/02 08:28:19;;;;;;;23.35;12.77;;;;;;;-139.48;100.00;61774.03;4948703;28;20051;-69
2021/03/02 08:31:11;;;;;;;21.70;11.77;;;;;;;-139.48;100.00;61774.03;4935579;29;20118;-69
2021/03/02 08:33:56;;;;;;;21.20;12.57;;;;;;;-139.48;100.00;61774.03;4921765;29;20070;-69
2021/03/02 08:36:40;;;;;;;20.42;11.93;;;;;;;-139.48;100.00;61774.03;4921105;29;20580;-70
2021/03/02 08:39:25;;;;;;;22.98;11.63;;;;;;;-139.48;100.00;61774.03;4934497;29;20054;-68
2021/03/02 08:42:09;;;;;;;21.73;11.18;;;;;;;-139.48;100.00;61774.03;4934864;29;20569;-69
2021/03/02 08:45:10;;;;;;;22.27;12.32;;;;;;;-139.48;100.00;61774.03;4934798;29;20054;-70
2021/03/02 08:48:19;;;;;;;20.02;11.43;;;;;;;-139.48;100.00;61774.03;4935700;29;20098;-69
2021/03/02 08:51:05;;;;;;;21.65;12.50;;;;;;;-139.48;100.00;61774.03;4921255;29;20498;-69
2021/03/02 08:53:51;;;;;;;21.50;11.60;;;;;;;-139.48;100.00;61774.03;4936077;29;20147;-70
2021/03/02 08:56:35;;;;;;;20.42;11.77;;;;;;;-139.48;100.00;61774.03;4934468;29;20421;-69
2021/03/02 08:59:20;;;;;;;19.63;11.35;;;;;;;-139.48;100.00;61774.03;4937805;29;20055;-69
2021/03/02 09:02:04;;;;;;;19.02;11.93;;;;;;;-139.48;100.00;61774.03;4938923;29;20074;-69
2021/03/02 09:04:48;;;;;;;22.58;11.68;;;;;;;-139.48;100.00;61774.03;4939078;29;20054;-70
2021/03/02 09:07:32;;;;;;;20.38;11.55;;;;;;;-139.48;100.00;61774.03;4938679;29;20457;-70
2021/03/02 09:10:16;;;;;;;19.75;11.88;;;;;;;-139.48;100.00;61774.03;4937979;29;20051;-69
2021/03/02 09:13:01;;;;;;;;;;;;;;;-139.48;100.00;61774.03;4938363;29;20087;-70
2021/03/02 09:15:45;;;;;;;;;;;;;;;-139.48;100.00;61774.03;4951760;29;19970;-69
2021/03/02 09:18:30;;;;;;;21.08;10.93;;;;;;;-139.48;100.00;61774.03;4950950;28;20407;-69
2021/03/02 09:21:14;;;;;;;16.67;10.38;;;;;;;-139.48;100.00;61774.03;4938581;29;20069;-68
2021/03/02 09:23:59;;;;;;;18.48;11.15;;;;;;;-139.48;100.00;61774.03;4938522;29;20054;-69
2021/03/02 09:26:53;;;;;;;18.88;10.55;;;;;;;-139.48;100.00;61774.03;4937121;29;20135;-69
2021/03/02 09:29:46;;;;;;;24.08;11.70;;;;;;;-139.48;100.00;61774.03;4938676;29;20110;-70
2021/03/02 09:32:32;;;;;;;17.65;10.15;;;;;;;-139.48;100.00;61774.03;4937347;29;20070;-70
2021/03/02 09:35:16;;;;;;;13.30;9.48;;;;;;;-139.48;100.00;61774.03;4923752;29;20051;-69
2021/03/02 09:38:00;;;;;;;;;;;;;;;-139.48;100.00;61774.03;4938675;29;20094;-67
2021/03/02 09:40:44;;;;;;;18.98;10.25;;;;;;;-139.48;100.00;61774.03;4937279;29;20403;-68
2021/03/02 09:43:39;;;;;;;16.17;10.82;;;;;;;-139.48;100.00;61774.03;4938141;29;20484;-68
2021/03/02 09:46:38;;;;;;;17.02;10.90;;;;;;;-139.48;100.00;61774.03;4937320;29;20066;-68
2021/03/02 09:49:38;;;;;;;13.45;10.20;;;;;;;-139.48;100.00;61774.03;4937039;29;20049;-68
2021/03/02 09:52:25;;;;;;;15.18;11.90;;;;;;;-139.48;100.00;61774.03;4936946;29;20098;-68
2021/03/02 09:55:19;;;;;;;14.40;11.55;;;;;;;-139.48;100.00;61774.03;4923816;29;20074;-68
2021/03/02 09:58:12;;;;;;;17.08;11.30;;;;;;;-139.48;100.00;61774.03;4937682;29;20098;-68
2021/03/02 10:00:59;;;;;;;15.80;10.73;;;;;;;-139.48;100.00;61774.03;4936823;29;20054;-68
2021/03/02 10:03:46;;;;;;;15.20;11.52;;;;;;;-139.48;100.00;61774.03;4937951;29;20537;-68
2021/03/02 10:06:30;;;;;;;14.60;11.55;;;;;;;-139.48;100.00;61774.03;4923252;29;20058;-68
2021/03/02 10:09:24;;;;;;;16.98;12.75;;;;;;;-139.48;100.00;61774.03;4937317;29;20106;-69
2021/03/02 10:12:13;;;;;;;15.80;12.65;;;;;;;-139.48;100.00;61774.03;4923248;29;20054;-68
2021/03/02 10:14:58;;;;;;;13.38;11.13;;;;;;;-139.48;100.00;61774.03;4937993;29;20053;-69
2021/03/02 10:17:42;;;;;;;14.77;12.23;;;;;;;-139.48;100.00;61774.03;4937227;29;20520;-69
2021/03/02 10:20:27;;;;;;;17.23;12.60;;;;;;;-139.48;100.00;61774.03;4936664;29;20054;-69
2021/03/02 10:23:13;;;;;;;14.38;11.77;;;;;;;-139.48;100.00;61774.03;4936389;29;20042;-68
2021/03/02 10:25:59;;;;;;;13.50;12.02;;;;;;;-139.48;100.00;61774.03;4936392;29;20425;-69
2021/03/02 10:28:43;;;;;;;13.93;12.25;;;;;;;-139.48;100.00;61774.03;4923165;29;20050;-68
2021/03/02 10:31:27;;;;;;;16.10;11.77;;;;;;;-139.48;100.00;61774.03;4936372;29;20062;-68
2021/03/02 10:34:12;;;;;;;15.23;12.10;;;;;;;-139.48;100.00;61774.03;4936459;29;20108;-68
2021/03/02 10:36:56;;;;;;;15.32;12.10;;;;;;;-139.48;100.00;61774.03;4922958;29;20046;-69
2021/03/02 10:39:41;;;;;;;13.07;11.70;;;;;;;-139.48;100.00;61774.03;4936153;29;20074;-68
2021/03/02 10:42:25;;;;;;;13.35;11.90;;;;;;;-139.48;100.00;61774.03;4937432;29;20453;-68
2021/03/02 10:45:09;;;;;;;15.82;12.35;;;;;;;-139.48;100.00;61774.03;4936296;29;20409;-68
2021/03/02 10:47:54;;;;;;;17.30;11.80;;;;;;;-139.48;100.00;61774.03;4937137;29;20051;-69
2021/03/02 10:50:38;;;;;;;16.40;12.23;;;;;;;-139.48;100.00;61774.03;4937021;29;20111;-69
2021/03/02 10:53:23;;;;;;;12.57;11.27;;;;;;;-139.48;100.00;61774.03;4936149;29;20050;-69
2021/03/02 10:56:08;;;;;;;15.38;12.60;;;;;;;-139.48;100.00;61774.03;4936129;29;20099;-68
2021/03/02 10:58:52;;;;;;;14.85;12.57;;;;;;;-139.48;100.00;61774.03;4935748;29;20047;-68
2021/03/02 11:01:36;;;;;;;16.25;12.35;;;;;;;-139.48;100.00;61774.03;4937043;29;20055;-68
2021/03/02 11:04:20;;;;;;;15.25;12.63;;;;;;;-139.48;100.00;61774.03;4936641;29;20055;-69
2021/03/02 11:07:04;;;;;;;14.63;12.45;;;;;;;-139.48;100.00;61774.03;4936617;29;20091;-69
2021/03/02 11:09:49;;;;;;;14.45;11.57;;;;;;;-139.48;100.00;61774.03;4936845;29;20054;-69
2021/03/02 11:12:33;;;;;;;14.60;12.35;;;;;;;-139.48;100.00;61774.03;4935762;29;20055;-69
2021/03/02 11:15:18;;;;;;;15.35;12.30;;;;;;;-139.48;100.00;61774.03;4936773;29;20099;-69
2021/03/02 11:18:02;;;;;;;14.40;12.68;;;;;;;-139.48;100.00;61774.03;4936356;29;20420;-69
2021/03/02 11:20:46;;;;;;;14.95;11.88;;;;;;;-139.48;100.00;61774.03;4922069;29;20062;-69
2021/03/02 11:23:30;;;;;;;15.52;12.77;;;;;;;-139.48;100.00;61774.03;4936623;29;20102;-69
2021/03/02 11:26:14;;;;;;;19.67;12.48;;;;;;;-139.48;100.00;61774.03;4935527;29;20118;-69
2021/03/02 11:28:58;;;;;;;14.80;12.57;;;;;;;-139.48;100.00;61774.03;4936288;29;20083;-69
2021/03/02 11:31:42;;;;;;;14.05;12.48;;;;;;;-139.48;100.00;61774.03;4935404;29;20111;-69
2021/03/02 11:34:26;;;;;;;16.20;13.02;;;;;;;-139.48;100.00;61774.03;4935172;29;20119;-69
2021/03/02 11:37:10;;;;;;;14.05;12.52;;;;;;;-139.48;100.00;61774.03;4935415;29;20054;-69
2021/03/02 11:39:54;;;;;;;15.77;11.95;;;;;;;-139.48;100.00;61774.03;4936309;29;20096;-69
2021/03/02 11:42:39;;;;;;;14.02;12.52;;;;;;;-139.48;100.00;61774.03;4936142;29;20054;-69
2021/03/02 11:45:25;;;;;;;14.73;12.10;;;;;;;-139.48;100.00;61774.03;4936309;29;20047;-69
2021/03/02 11:48:10;;;;;;;15.07;12.77;;;;;;;-139.48;100.00;61774.03;4935080;29;20047;-69
2021/03/02 11:50:54;;;;;;;16.23;13.18;;;;;;;-139.48;100.00;61774.03;4935231;29;20518;-69
2021/03/02 11:53:38;;;;;;;14.05;12.10;;;;;;;-139.48;100.00;61774.03;4935948;29;20437;-69
2021/03/02 11:56:23;;;;;;;17.45;13.57;;;;;;;-139.48;100.00;61774.03;4936076;29;20102;-69
2021/03/02 11:59:07;;;;;;;16.58;13.18;;;;;;;-139.48;100.00;61774.03;4935792;29;20102;-69
2021/03/02 12:01:52;;;;;;;15.73;12.70;;;;;;;-139.48;100.00;61774.03;4935143;29;20086;-69
2021/03/02 12:04:36;;;;;;;15.10;12.60;;;;;;;-139.48;100.00;61774.03;4935748;29;20424;-69
2021/03/02 12:07:21;;;;;;;15.52;12.70;;;;;;;-139.48;100.00;61774.03;4921228;29;20143;-69
2021/03/02 12:10:07;;;;;;;15.77;12.75;;;;;;;-139.48;100.00;61774.03;4921923;29;20074;-68
2021/03/02 12:12:51;;;;;;;15.07;12.77;;;;;;;-139.48;100.00;61774.03;4935775;29;20151;-68
2021/03/02 12:15:36;;;;;;;16.15;13.10;;;;;;;-139.48;100.00;61774.03;4935770;29;20114;-69
2021/03/02 12:18:19;;;;;;;15.43;13.57;;;;;;;-139.48;100.00;61774.03;4934532;29;20046;-69
2021/03/02 12:21:04;;;;;;;16.73;13.90;;;;;;;-139.48;100.00;61774.03;4935175;29;20067;-68
2021/03/02 12:23:48;;;;;;;18.67;14.10;;;;;;;-139.48;100.00;61774.03;4935902;29;20477;-69
2021/03/02 12:26:32;;;;;;;17.42;13.95;;;;;;;-139.48;100.00;61774.03;4935478;29;20516;-69
2021/03/02 12:29:17;;;;;;;27.58;19.67;;;;;;;-139.48;100.00;61774.03;4935753;29;20515;-69
2021/03/02 12:32:01;;;;;;;19.95;14.80;;;;;;;-139.48;100.00;61774.03;4936133;29;20050;-69
2021/03/02 12:34:45;;;;;;;23.50;17.58;;;;;;;-139.48;100.00;61774.03;4939130;29;20150;-69